createdAt,value
2022-09-04T00:00:05.087Z,979.17
2022-09-04T00:01:05.005Z,979.18
2022-09-04T00:02:04.931Z,979.17
2022-09-04T00:03:04.858Z,979.19
2022-09-04T00:04:04.843Z,979.17
2022-09-04T00:05:04.887Z,979.14
2022-09-04T00:06:04.620Z,979.17
2022-09-04T00:07:04.554Z,979.17
2022-09-04T00:08:04.470Z,979.17
2022-09-04T00:09:04.390Z,979.16
2022-09-04T00:10:04.311Z,979.16
2022-09-04T00:11:04.237Z,979.14
2022-09-04T00:12:04.160Z,979.11
2022-09-04T00:13:04.083Z,979.15
2022-09-04T00:14:04.005Z,979.13
2022-09-04T00:15:03.926Z,979.16
2022-09-04T00:16:03.851Z,979.15
2022-09-04T00:17:03.861Z,979.14
2022-09-04T00:18:03.693Z,979.16
2022-09-04T00:19:03.613Z,979.15
2022-09-04T00:20:03.537Z,979.21
2022-09-04T00:21:03.458Z,979.22
2022-09-04T00:22:03.384Z,979.23
2022-09-04T00:23:03.304Z,979.22
2022-09-04T00:24:03.230Z,979.22
2022-09-04T00:25:03.153Z,979.20
2022-09-04T00:26:03.073Z,979.19
2022-09-04T00:27:03.000Z,979.18
2022-09-04T00:28:02.922Z,979.15
2022-09-04T00:29:02.841Z,979.20
2022-09-04T00:30:02.766Z,979.20
2022-09-04T00:31:02.762Z,979.20
2022-09-04T00:32:02.609Z,979.17
2022-09-04T00:33:02.532Z,979.22
2022-09-04T00:34:02.454Z,979.22
2022-09-04T00:35:02.382Z,979.23
2022-09-04T00:36:02.299Z,979.24
2022-09-04T00:37:02.225Z,979.24
2022-09-04T00:38:02.143Z,979.24
2022-09-04T00:39:02.067Z,979.26
2022-09-04T00:40:02.030Z,979.23
2022-09-04T00:41:01.918Z,979.26
2022-09-04T00:42:01.832Z,979.30
2022-09-04T00:43:01.763Z,979.32
2022-09-04T00:44:01.683Z,979.30
2022-09-04T00:45:01.605Z,979.29
2022-09-04T00:46:01.570Z,979.31
2022-09-04T00:47:01.447Z,979.31
2022-09-04T00:48:01.375Z,979.33
2022-09-04T00:49:01.300Z,979.33
2022-09-04T00:50:01.218Z,979.34
2022-09-04T00:51:01.155Z,979.34
2022-09-04T00:52:01.064Z,979.37
2022-09-04T00:53:00.985Z,979.37
2022-09-04T00:54:00.908Z,979.36
2022-09-04T00:55:00.826Z,979.39
2022-09-04T00:56:00.750Z,979.41
2022-09-04T00:57:00.674Z,979.41
2022-09-04T00:58:00.595Z,979.44
2022-09-04T00:59:00.519Z,979.45
2022-09-04T01:00:00.442Z,979.44
2022-09-04T01:01:00.595Z,979.43
2022-09-04T01:02:00.459Z,979.43
2022-09-04T01:03:00.207Z,979.44
2022-09-04T01:04:00.132Z,979.46
2022-09-04T01:05:00.061Z,979.48
2022-09-04T01:05:59.975Z,979.50
2022-09-04T01:06:59.897Z,979.50
2022-09-04T01:07:59.815Z,979.51
2022-09-04T01:08:59.750Z,979.49
2022-09-04T01:09:59.668Z,979.49
2022-09-04T01:10:59.584Z,979.51
2022-09-04T01:11:59.510Z,979.54
2022-09-04T01:12:59.429Z,979.51
2022-09-04T01:13:59.352Z,979.51
2022-09-04T01:14:59.282Z,979.50
2022-09-04T01:15:59.197Z,979.53
2022-09-04T01:16:59.124Z,979.51
2022-09-04T01:17:59.043Z,979.53
2022-09-04T01:18:58.969Z,979.54
2022-09-04T01:19:58.897Z,979.55
2022-09-04T01:20:58.812Z,979.55
2022-09-04T01:21:58.728Z,979.57
2022-09-04T01:22:58.663Z,979.56
2022-09-04T01:23:58.573Z,979.54
2022-09-04T01:24:58.500Z,979.56
2022-09-04T01:25:58.436Z,979.56
2022-09-04T01:26:58.343Z,979.58
2022-09-04T01:27:58.278Z,979.57
2022-09-04T01:28:58.196Z,979.59
2022-09-04T01:29:58.115Z,979.62
2022-09-04T01:30:58.035Z,979.61
2022-09-04T01:31:57.989Z,979.60
2022-09-04T01:32:57.877Z,979.61
2022-09-04T01:33:57.803Z,979.56
2022-09-04T01:34:57.725Z,979.58
2022-09-04T01:35:57.642Z,979.58
2022-09-04T01:36:57.561Z,979.61
2022-09-04T01:37:57.486Z,979.62
2022-09-04T01:38:57.414Z,979.64
2022-09-04T01:39:57.354Z,979.60
2022-09-04T01:40:57.258Z,979.66
2022-09-04T01:41:57.175Z,979.67
2022-09-04T01:42:57.094Z,979.71
2022-09-04T01:43:57.029Z,979.68
2022-09-04T01:44:56.946Z,979.69
2022-09-04T01:45:56.950Z,979.69
2022-09-04T01:46:56.791Z,979.75
2022-09-04T01:47:56.709Z,979.75
2022-09-04T01:48:56.638Z,979.77
2022-09-04T01:49:56.550Z,979.77
2022-09-04T01:50:56.483Z,979.78
2022-09-04T01:51:56.396Z,979.81
2022-09-04T01:52:56.322Z,979.78
2022-09-04T01:53:56.245Z,979.78
2022-09-04T01:54:56.175Z,979.77
2022-09-04T01:55:56.087Z,979.75
2022-09-04T01:56:56.013Z,979.70
2022-09-04T01:57:55.929Z,979.71
2022-09-04T01:58:55.852Z,979.78
2022-09-04T01:59:55.777Z,979.74
2022-09-04T02:00:57.702Z,979.76
2022-09-04T02:01:55.671Z,979.77
2022-09-04T02:02:55.549Z,979.78
2022-09-04T02:03:55.459Z,979.82
2022-09-04T02:04:55.384Z,979.83
2022-09-04T02:05:55.310Z,979.84
2022-09-04T02:06:55.229Z,979.86
2022-09-04T02:07:55.154Z,979.89
2022-09-04T02:08:55.077Z,979.86
2022-09-04T02:09:54.993Z,979.86
2022-09-04T02:10:54.920Z,979.81
2022-09-04T02:11:57.152Z,979.82
2022-09-04T02:12:54.764Z,979.85
2022-09-04T02:13:54.682Z,979.85
2022-09-04T02:14:54.608Z,979.82
2022-09-04T02:15:54.555Z,979.85
2022-09-04T02:16:54.450Z,979.86
2022-09-04T02:17:54.371Z,979.85
2022-09-04T02:18:54.291Z,979.86
2022-09-04T02:19:54.213Z,979.88
2022-09-04T02:20:54.140Z,979.88
2022-09-04T02:21:54.059Z,979.90
2022-09-04T02:22:53.980Z,979.87
2022-09-04T02:23:53.907Z,979.91
2022-09-04T02:24:53.831Z,979.85
2022-09-04T02:25:53.749Z,979.91
2022-09-04T02:26:53.668Z,979.87
2022-09-04T02:27:53.589Z,979.91
2022-09-04T02:28:53.510Z,979.88
2022-09-04T02:29:53.438Z,979.88
2022-09-04T02:30:54.109Z,979.88
2022-09-04T02:31:53.328Z,979.87
2022-09-04T02:32:53.206Z,979.88
2022-09-04T02:33:53.124Z,979.89
2022-09-04T02:34:53.044Z,979.89
2022-09-04T02:35:52.965Z,979.87
2022-09-04T02:36:52.886Z,979.90
2022-09-04T02:37:52.812Z,979.87
2022-09-04T02:38:52.732Z,979.89
2022-09-04T02:39:52.739Z,979.84
2022-09-04T02:40:52.594Z,979.91
2022-09-04T02:41:52.503Z,979.90
2022-09-04T02:42:52.422Z,979.90
2022-09-04T02:43:52.341Z,979.93
2022-09-04T02:44:52.264Z,979.95
2022-09-04T02:45:52.190Z,979.93
2022-09-04T02:46:52.146Z,979.95
2022-09-04T02:47:52.029Z,979.92
2022-09-04T02:48:51.953Z,979.95
2022-09-04T02:49:51.876Z,979.94
2022-09-04T02:50:51.797Z,979.93
2022-09-04T02:51:51.714Z,979.92
2022-09-04T02:52:51.637Z,979.95
2022-09-04T02:53:51.561Z,979.94
2022-09-04T02:54:51.489Z,979.93
2022-09-04T02:55:51.407Z,979.92
2022-09-04T02:56:51.323Z,979.91
2022-09-04T02:57:51.247Z,979.90
2022-09-04T02:58:51.168Z,979.91
2022-09-04T02:59:51.094Z,979.90
2022-09-04T03:00:51.051Z,979.89
2022-09-04T03:01:50.998Z,979.85
2022-09-04T03:02:50.853Z,979.91
2022-09-04T03:03:50.777Z,979.90
2022-09-04T03:04:50.698Z,979.91
2022-09-04T03:05:50.621Z,979.90
2022-09-04T03:06:50.549Z,979.92
2022-09-04T03:07:50.467Z,979.90
2022-09-04T03:08:50.392Z,979.91
2022-09-04T03:09:50.306Z,979.92
2022-09-04T03:10:50.232Z,979.89
2022-09-04T03:11:50.154Z,979.91
2022-09-04T03:12:50.073Z,979.91
2022-09-04T03:13:49.998Z,979.91
2022-09-04T03:14:49.920Z,979.93
2022-09-04T03:15:49.865Z,979.92
2022-09-04T03:16:49.770Z,979.94
2022-09-04T03:17:49.683Z,979.96
2022-09-04T03:18:49.605Z,979.91
2022-09-04T03:19:49.531Z,979.93
2022-09-04T03:20:49.450Z,979.91
2022-09-04T03:21:49.376Z,979.90
2022-09-04T03:22:49.291Z,979.91
2022-09-04T03:23:49.215Z,979.93
2022-09-04T03:24:49.133Z,979.92
2022-09-04T03:25:49.055Z,979.94
2022-09-04T03:26:48.982Z,979.96
2022-09-04T03:27:48.903Z,979.92
2022-09-04T03:28:48.821Z,979.95
2022-09-04T03:29:48.748Z,979.93
2022-09-04T03:30:48.669Z,979.96
2022-09-04T03:31:48.629Z,979.95
2022-09-04T03:32:48.512Z,979.96
2022-09-04T03:33:48.432Z,979.94
2022-09-04T03:34:48.352Z,979.92
2022-09-04T03:35:48.277Z,979.96
2022-09-04T03:36:48.203Z,979.93
2022-09-04T03:37:48.119Z,979.95
2022-09-04T03:38:48.040Z,979.94
2022-09-04T03:39:48.010Z,979.95
2022-09-04T03:40:47.888Z,979.95
2022-09-04T03:41:47.805Z,979.96
2022-09-04T03:42:47.725Z,979.94
2022-09-04T03:43:47.647Z,979.97
2022-09-04T03:44:47.573Z,980.00
2022-09-04T03:45:47.495Z,979.97
2022-09-04T03:46:47.506Z,979.95
2022-09-04T03:47:47.336Z,979.93
2022-09-04T03:48:47.257Z,979.98
2022-09-04T03:49:47.184Z,979.95
2022-09-04T03:50:47.106Z,979.99
2022-09-04T03:51:47.021Z,979.97
2022-09-04T03:52:46.943Z,980.00
2022-09-04T03:53:46.870Z,980.03
2022-09-04T03:54:46.787Z,980.02
2022-09-04T03:55:46.712Z,980.04
2022-09-04T03:56:46.630Z,980.01
2022-09-04T03:57:46.556Z,980.03
2022-09-04T03:58:46.473Z,980.04
2022-09-04T03:59:46.394Z,980.08
2022-09-04T04:00:46.353Z,980.04
2022-09-04T04:01:46.243Z,980.05
2022-09-04T04:02:46.204Z,980.04
2022-09-04T04:03:46.078Z,980.06
2022-09-04T04:04:46.007Z,980.03
2022-09-04T04:05:48.246Z,980.05
2022-09-04T04:06:45.848Z,980.04
2022-09-04T04:07:45.772Z,980.04
2022-09-04T04:08:45.691Z,980.05
2022-09-04T04:09:45.615Z,980.03
2022-09-04T04:10:45.535Z,980.08
2022-09-04T04:11:45.451Z,980.08
2022-09-04T04:12:45.380Z,980.13
2022-09-04T04:13:45.299Z,980.14
2022-09-04T04:14:45.224Z,980.16
2022-09-04T04:15:45.175Z,980.19
2022-09-04T04:16:46.977Z,980.18
2022-09-04T04:17:44.982Z,980.17
2022-09-04T04:18:44.906Z,980.18
2022-09-04T04:19:44.832Z,980.14
2022-09-04T04:20:44.749Z,980.14
2022-09-04T04:21:44.673Z,980.16
2022-09-04T04:22:44.593Z,980.11
2022-09-04T04:23:44.513Z,980.10
2022-09-04T04:24:44.440Z,980.14
2022-09-04T04:25:44.368Z,980.14
2022-09-04T04:26:44.279Z,980.12
2022-09-04T04:27:44.218Z,980.11
2022-09-04T04:28:44.127Z,980.15
2022-09-04T04:29:44.043Z,980.16
2022-09-04T04:30:43.966Z,980.20
2022-09-04T04:31:43.922Z,980.19
2022-09-04T04:32:43.818Z,980.22
2022-09-04T04:33:43.762Z,980.26
2022-09-04T04:34:43.656Z,980.25
2022-09-04T04:35:43.574Z,980.27
2022-09-04T04:36:43.498Z,980.25
2022-09-04T04:37:43.427Z,980.27
2022-09-04T04:38:43.345Z,980.26
2022-09-04T04:39:43.331Z,980.28
2022-09-04T04:40:43.181Z,980.30
2022-09-04T04:41:43.110Z,980.26
2022-09-04T04:42:43.029Z,980.24
2022-09-04T04:43:42.954Z,980.26
2022-09-04T04:44:42.872Z,980.30
2022-09-04T04:45:42.797Z,980.29
2022-09-04T04:46:42.788Z,980.35
2022-09-04T04:47:42.637Z,980.35
2022-09-04T04:48:42.560Z,980.38
2022-09-04T04:49:42.484Z,980.40
2022-09-04T04:50:42.402Z,980.41
2022-09-04T04:51:42.337Z,980.41
2022-09-04T04:52:42.244Z,980.44
2022-09-04T04:53:42.167Z,980.47
2022-09-04T04:54:42.091Z,980.52
2022-09-04T04:55:42.016Z,980.53
2022-09-04T04:56:41.934Z,980.52
2022-09-04T04:57:41.858Z,980.55
2022-09-04T04:58:41.780Z,980.59
2022-09-04T04:59:41.696Z,980.59
2022-09-04T05:00:41.622Z,980.58
2022-09-04T05:01:41.660Z,980.66
2022-09-04T05:02:41.596Z,980.64
2022-09-04T05:03:41.387Z,980.68
2022-09-04T05:04:41.305Z,980.69
2022-09-04T05:05:41.233Z,980.71
2022-09-04T05:06:41.149Z,980.75
2022-09-04T05:07:41.072Z,980.76
2022-09-04T05:08:40.990Z,980.80
2022-09-04T05:09:40.915Z,980.80
2022-09-04T05:10:40.838Z,980.80
2022-09-04T05:11:40.760Z,980.81
2022-09-04T05:12:40.686Z,980.84
2022-09-04T05:13:40.608Z,980.87
2022-09-04T05:14:40.526Z,980.89
2022-09-04T05:15:58.239Z,980.88
2022-09-04T05:16:40.416Z,980.83
2022-09-04T05:17:40.290Z,980.87
2022-09-04T05:18:40.222Z,980.86
2022-09-04T05:19:40.131Z,980.87
2022-09-04T05:20:40.060Z,980.90
2022-09-04T05:21:39.974Z,980.91
2022-09-04T05:22:39.900Z,980.92
2022-09-04T05:23:39.830Z,980.92
2022-09-04T05:24:39.755Z,980.94
2022-09-04T05:25:39.671Z,980.97
2022-09-04T05:26:39.587Z,980.94
2022-09-04T05:27:39.511Z,981.00
2022-09-04T05:28:39.429Z,980.98
2022-09-04T05:29:39.355Z,981.06
2022-09-04T05:30:39.276Z,981.08
2022-09-04T05:31:39.225Z,981.06
2022-09-04T05:32:39.122Z,981.09
2022-09-04T05:33:39.037Z,981.07
2022-09-04T05:34:38.965Z,981.09
2022-09-04T05:35:38.881Z,981.14
2022-09-04T05:36:38.805Z,981.15
2022-09-04T05:37:38.727Z,981.16
2022-09-04T05:38:38.648Z,981.17
2022-09-04T05:39:38.609Z,981.21
2022-09-04T05:40:38.490Z,981.21
2022-09-04T05:41:38.420Z,981.25
2022-09-04T05:42:38.337Z,981.25
2022-09-04T05:43:38.265Z,981.29
2022-09-04T05:44:38.186Z,981.27
2022-09-04T05:45:38.106Z,981.33
2022-09-04T05:46:38.082Z,981.31
2022-09-04T05:47:37.949Z,981.31
2022-09-04T05:48:37.868Z,981.31
2022-09-04T05:49:37.804Z,981.33
2022-09-04T05:50:37.717Z,981.31
2022-09-04T05:51:37.637Z,981.35
2022-09-04T05:52:37.556Z,981.38
2022-09-04T05:53:37.495Z,981.40
2022-09-04T05:54:37.408Z,981.39
2022-09-04T05:55:37.325Z,981.41
2022-09-04T05:56:37.246Z,981.42
2022-09-04T05:57:37.174Z,981.42
2022-09-04T05:58:37.095Z,981.40
2022-09-04T05:59:37.015Z,981.38
2022-09-04T06:00:36.940Z,981.41
2022-09-04T06:01:36.903Z,981.41
2022-09-04T06:02:36.818Z,981.44
2022-09-04T06:03:36.704Z,981.47
2022-09-04T06:04:36.623Z,981.49
2022-09-04T06:05:36.551Z,981.50
2022-09-04T06:06:36.471Z,981.54
2022-09-04T06:07:36.396Z,981.56
2022-09-04T06:08:36.312Z,981.58
2022-09-04T06:09:36.236Z,981.53
2022-09-04T06:10:36.167Z,981.57
2022-09-04T06:11:36.080Z,981.59
2022-09-04T06:12:36.000Z,981.63
2022-09-04T06:13:35.929Z,981.64
2022-09-04T06:14:35.851Z,981.64
2022-09-04T06:15:35.981Z,981.67
2022-09-04T06:16:35.694Z,981.69
2022-09-04T06:17:35.621Z,981.70
2022-09-04T06:18:35.539Z,981.69
2022-09-04T06:19:35.456Z,981.64
2022-09-04T06:20:35.387Z,981.70
2022-09-04T06:21:35.302Z,981.70
2022-09-04T06:22:35.229Z,981.66
2022-09-04T06:23:35.154Z,981.72
2022-09-04T06:24:35.075Z,981.69
2022-09-04T06:25:34.993Z,981.72
2022-09-04T06:26:34.917Z,981.76
2022-09-04T06:27:35.417Z,981.73
2022-09-04T06:28:34.766Z,981.75
2022-09-04T06:29:34.688Z,981.71
2022-09-04T06:30:34.627Z,981.75
2022-09-04T06:31:34.574Z,981.74
2022-09-04T06:32:34.458Z,981.77
2022-09-04T06:33:34.380Z,981.77
2022-09-04T06:34:34.302Z,981.79
2022-09-04T06:35:34.221Z,981.77
2022-09-04T06:36:34.143Z,981.79
2022-09-04T06:37:34.069Z,981.79
2022-09-04T06:38:33.997Z,981.78
2022-09-04T06:39:34.087Z,981.79
2022-09-04T06:40:33.837Z,981.79
2022-09-04T06:41:33.756Z,981.81
2022-09-04T06:42:33.681Z,981.79
2022-09-04T06:43:33.600Z,981.76
2022-09-04T06:44:33.529Z,981.78
2022-09-04T06:45:33.452Z,981.77
2022-09-04T06:46:33.428Z,981.78
2022-09-04T06:47:33.301Z,981.79
2022-09-04T06:48:33.217Z,981.75
2022-09-04T06:49:33.152Z,981.77
2022-09-04T06:50:33.065Z,981.78
2022-09-04T06:51:32.989Z,981.79
2022-09-04T06:52:32.910Z,981.84
2022-09-04T06:53:32.830Z,981.80
2022-09-04T06:54:32.759Z,981.86
2022-09-04T06:55:32.674Z,981.85
2022-09-04T06:56:32.598Z,981.87
2022-09-04T06:57:32.526Z,981.86
2022-09-04T06:58:32.447Z,981.88
2022-09-04T06:59:32.368Z,981.89
2022-09-04T07:00:32.294Z,981.87
2022-09-04T07:01:32.337Z,981.90
2022-09-04T07:02:32.233Z,981.89
2022-09-04T07:03:32.063Z,981.90
2022-09-04T07:04:31.983Z,981.90
2022-09-04T07:05:31.906Z,981.94
2022-09-04T07:06:31.831Z,981.90
2022-09-04T07:07:31.750Z,981.94
2022-09-04T07:08:31.675Z,981.94
2022-09-04T07:09:31.603Z,981.96
2022-09-04T07:10:31.527Z,981.99
2022-09-04T07:11:31.445Z,981.98
2022-09-04T07:12:31.374Z,982.02
2022-09-04T07:13:31.295Z,981.99
2022-09-04T07:14:31.216Z,982.02
2022-09-04T07:15:31.197Z,982.02
2022-09-04T07:16:31.061Z,982.03
2022-09-04T07:17:30.984Z,982.05
2022-09-04T07:18:30.905Z,982.06
2022-09-04T07:19:30.837Z,982.05
2022-09-04T07:20:30.766Z,982.09
2022-09-04T07:21:30.673Z,982.09
2022-09-04T07:22:30.599Z,982.11
2022-09-04T07:23:30.523Z,982.10
2022-09-04T07:24:30.449Z,982.11
2022-09-04T07:25:30.363Z,982.13
2022-09-04T07:26:30.289Z,982.10
2022-09-04T07:27:30.216Z,982.13
2022-09-04T07:28:30.141Z,982.16
2022-09-04T07:29:30.065Z,982.16
2022-09-04T07:30:29.985Z,982.16
2022-09-04T07:31:29.962Z,982.20
2022-09-04T07:32:29.830Z,982.19
2022-09-04T07:33:29.758Z,982.22
2022-09-04T07:34:29.677Z,982.20
2022-09-04T07:35:29.605Z,982.21
2022-09-04T07:36:31.883Z,982.25
2022-09-04T07:37:29.451Z,982.27
2022-09-04T07:38:29.370Z,982.27
2022-09-04T07:39:29.387Z,982.23
2022-09-04T07:40:30.830Z,982.28
2022-09-04T07:41:29.142Z,982.27
2022-09-04T07:42:30.933Z,982.24
2022-09-04T07:43:28.989Z,982.26
2022-09-04T07:44:28.912Z,982.26
2022-09-04T07:45:28.835Z,982.26
2022-09-04T07:46:28.798Z,982.20
2022-09-04T07:47:28.680Z,982.30
2022-09-04T07:48:28.615Z,982.30
2022-09-04T07:49:28.529Z,982.29
2022-09-04T07:50:28.451Z,982.26
2022-09-04T07:51:28.379Z,982.30
2022-09-04T07:52:28.300Z,982.27
2022-09-04T07:53:28.228Z,982.28
2022-09-04T07:54:28.152Z,982.33
2022-09-04T07:55:28.068Z,982.36
2022-09-04T07:56:27.997Z,982.33
2022-09-04T07:57:27.917Z,982.36
2022-09-04T07:58:27.846Z,982.38
2022-09-04T07:59:27.766Z,982.40
2022-09-04T08:00:27.686Z,982.45
2022-09-04T08:01:27.639Z,982.50
2022-09-04T08:02:27.539Z,982.50
2022-09-04T08:03:27.462Z,982.52
2022-09-04T08:04:27.436Z,982.50
2022-09-04T08:05:27.309Z,982.52
2022-09-04T08:06:27.231Z,982.50
2022-09-04T08:07:27.152Z,982.49
2022-09-04T08:08:27.086Z,982.49
2022-09-04T08:09:27.003Z,982.49
2022-09-04T08:10:26.927Z,982.50
2022-09-04T08:11:26.856Z,982.48
2022-09-04T08:12:26.774Z,982.49
2022-09-04T08:13:26.700Z,982.50
2022-09-04T08:14:26.626Z,982.50
2022-09-04T08:15:26.567Z,982.48
2022-09-04T08:16:26.557Z,982.48
2022-09-04T08:17:26.396Z,982.49
2022-09-04T08:18:26.360Z,982.48
2022-09-04T08:19:26.243Z,982.50
2022-09-04T08:20:26.185Z,982.50
2022-09-04T08:21:26.105Z,982.48
2022-09-04T08:22:28.333Z,982.55
2022-09-04T08:23:25.944Z,982.54
2022-09-04T08:24:25.877Z,982.58
2022-09-04T08:25:25.788Z,982.55
2022-09-04T08:26:25.717Z,982.54
2022-09-04T08:27:25.739Z,982.56
2022-09-04T08:28:25.692Z,982.57
2022-09-04T08:29:25.483Z,982.54
2022-09-04T08:30:25.409Z,982.56
2022-09-04T08:31:25.402Z,982.57
2022-09-04T08:32:25.256Z,982.57
2022-09-04T08:33:25.184Z,982.60
2022-09-04T08:34:25.109Z,982.59
2022-09-04T08:35:25.030Z,982.57
2022-09-04T08:36:24.961Z,982.61
2022-09-04T08:37:24.876Z,982.61
2022-09-04T08:38:24.866Z,982.61
2022-09-04T08:39:24.753Z,982.61
2022-09-04T08:40:24.652Z,982.62
2022-09-04T08:41:24.574Z,982.63
2022-09-04T08:42:24.498Z,982.65
2022-09-04T08:43:24.426Z,982.62
2022-09-04T08:44:24.399Z,982.63
2022-09-04T08:45:24.272Z,982.62
2022-09-04T08:46:28.317Z,982.60
2022-09-04T08:47:24.124Z,982.67
2022-09-04T08:48:24.043Z,982.68
2022-09-04T08:49:23.970Z,982.67
2022-09-04T08:50:23.924Z,982.69
2022-09-04T08:51:24.365Z,982.70
2022-09-04T08:52:23.777Z,982.65
2022-09-04T08:53:23.683Z,982.67
2022-09-04T08:54:23.589Z,982.72
2022-09-04T08:55:23.516Z,982.73
2022-09-04T08:56:23.441Z,982.73
2022-09-04T08:57:23.386Z,982.72
2022-09-04T08:58:23.405Z,982.78
2022-09-04T08:59:23.215Z,982.74
2022-09-04T09:00:23.148Z,982.75
2022-09-04T09:01:23.091Z,982.79
2022-09-04T09:02:23.044Z,982.75
2022-09-04T09:03:22.924Z,982.80
2022-09-04T09:04:22.829Z,982.82
2022-09-04T09:05:23.050Z,982.79
2022-09-04T09:06:22.685Z,982.85
2022-09-04T09:07:22.606Z,982.83
2022-09-04T09:08:22.565Z,982.82
2022-09-04T09:09:22.457Z,982.80
2022-09-04T09:10:22.379Z,982.83
2022-09-04T09:11:22.301Z,982.81
2022-09-04T09:12:22.223Z,982.80
2022-09-04T09:13:22.151Z,982.84
2022-09-04T09:14:22.073Z,982.81
2022-09-04T09:15:22.027Z,982.84
2022-09-04T09:16:22.013Z,982.81
2022-09-04T09:17:21.851Z,982.78
2022-09-04T09:18:21.850Z,982.82
2022-09-04T09:19:21.696Z,982.78
2022-09-04T09:20:21.619Z,982.78
2022-09-04T09:21:21.547Z,982.75
2022-09-04T09:22:21.474Z,982.77
2022-09-04T09:23:21.441Z,982.77
2022-09-04T09:24:21.325Z,982.78
2022-09-04T09:25:21.287Z,982.79
2022-09-04T09:26:21.169Z,982.76
2022-09-04T09:27:21.115Z,982.75
2022-09-04T09:28:21.016Z,982.81
2022-09-04T09:29:20.941Z,982.81
2022-09-04T09:30:20.863Z,982.82
2022-09-04T09:31:20.830Z,982.77
2022-09-04T09:32:20.716Z,982.77
2022-09-04T09:33:20.696Z,982.79
2022-09-04T09:34:20.577Z,982.78
2022-09-04T09:35:20.488Z,982.75
2022-09-04T09:36:20.411Z,982.78
2022-09-04T09:37:20.335Z,982.77
2022-09-04T09:38:20.263Z,982.73
2022-09-04T09:39:20.238Z,982.71
2022-09-04T09:40:20.108Z,982.71
2022-09-04T09:41:20.033Z,982.71
2022-09-04T09:42:19.961Z,982.71
2022-09-04T09:43:19.979Z,982.67
2022-09-04T09:44:19.810Z,982.70
2022-09-04T09:45:19.729Z,982.66
2022-09-04T09:46:19.686Z,982.70
2022-09-04T09:47:19.578Z,982.68
2022-09-04T09:48:19.509Z,982.69
2022-09-04T09:49:19.431Z,982.62
2022-09-04T09:50:19.364Z,982.64
2022-09-04T09:51:19.278Z,982.69
2022-09-04T09:52:19.207Z,982.67
2022-09-04T09:53:19.225Z,982.69
2022-09-04T09:54:19.052Z,982.71
2022-09-04T09:55:18.989Z,982.70
2022-09-04T09:56:18.903Z,982.67
2022-09-04T09:57:18.828Z,982.66
2022-09-04T09:58:18.748Z,982.66
2022-09-04T09:59:18.674Z,982.68
2022-09-04T10:00:18.609Z,982.65
2022-09-04T10:01:18.564Z,982.64
2022-09-04T10:02:18.486Z,982.68
2022-09-04T10:03:18.371Z,982.67
2022-09-04T10:04:18.321Z,982.66
2022-09-04T10:05:18.228Z,982.65
2022-09-04T10:06:18.150Z,982.66
2022-09-04T10:07:18.073Z,982.69
2022-09-04T10:08:17.995Z,982.63
2022-09-04T10:09:17.921Z,982.64
2022-09-04T10:10:17.851Z,982.64
2022-09-04T10:11:17.768Z,982.60
2022-09-04T10:12:17.701Z,982.61
2022-09-04T10:13:17.620Z,982.61
2022-09-04T10:14:17.557Z,982.63
2022-09-04T10:15:17.478Z,982.59
2022-09-04T10:16:17.480Z,982.61
2022-09-04T10:17:17.324Z,982.62
2022-09-04T10:18:17.247Z,982.64
2022-09-04T10:19:17.168Z,982.63
2022-09-04T10:20:17.095Z,982.62
2022-09-04T10:21:17.022Z,982.57
2022-09-04T10:22:16.946Z,982.58
2022-09-04T10:23:16.873Z,982.58
2022-09-04T10:24:16.791Z,982.58
2022-09-04T10:25:16.720Z,982.55
2022-09-04T10:26:16.649Z,982.56
2022-09-04T10:27:16.567Z,982.53
2022-09-04T10:28:16.491Z,982.51
2022-09-04T10:29:16.420Z,982.56
2022-09-04T10:30:16.344Z,982.51
2022-09-04T10:31:16.323Z,982.52
2022-09-04T10:32:16.196Z,982.52
2022-09-04T10:33:16.116Z,982.55
2022-09-04T10:34:16.046Z,982.53
2022-09-04T10:35:15.969Z,982.56
2022-09-04T10:36:15.899Z,982.52
2022-09-04T10:37:15.822Z,982.54
2022-09-04T10:38:15.745Z,982.53
2022-09-04T10:39:15.671Z,982.54
2022-09-04T10:40:15.597Z,982.52
2022-09-04T10:41:15.523Z,982.52
2022-09-04T10:42:15.450Z,982.48
2022-09-04T10:43:15.371Z,982.46
2022-09-04T10:44:15.298Z,982.47
2022-09-04T10:45:15.226Z,982.42
2022-09-04T10:46:23.487Z,982.38
2022-09-04T10:47:15.077Z,982.48
2022-09-04T10:48:15.001Z,982.49
2022-09-04T10:49:14.924Z,982.45
2022-09-04T10:50:14.848Z,982.45
2022-09-04T10:51:14.774Z,982.50
2022-09-04T10:52:14.803Z,982.48
2022-09-04T10:53:14.627Z,982.44
2022-09-04T10:54:14.556Z,982.46
2022-09-04T10:55:14.477Z,982.46
2022-09-04T10:56:14.409Z,982.42
2022-09-04T10:57:14.331Z,982.44
2022-09-04T10:58:14.255Z,982.44
2022-09-04T10:59:14.181Z,982.47
2022-09-04T11:00:14.110Z,982.44
2022-09-04T11:01:14.114Z,982.41
2022-09-04T11:02:14.016Z,982.41
2022-09-04T11:03:13.907Z,982.44
2022-09-04T11:04:13.821Z,982.41
2022-09-04T11:05:13.743Z,982.39
2022-09-04T11:06:15.727Z,982.38
2022-09-04T11:07:13.592Z,982.39
2022-09-04T11:08:13.514Z,982.40
2022-09-04T11:09:13.441Z,982.37
2022-09-04T11:10:13.395Z,982.38
2022-09-04T11:11:13.294Z,982.37
2022-09-04T11:12:13.218Z,982.38
2022-09-04T11:13:13.146Z,982.34
2022-09-04T11:14:13.079Z,982.39
2022-09-04T11:15:13.001Z,982.35
2022-09-04T11:16:12.958Z,982.36
2022-09-04T11:17:12.858Z,982.39
2022-09-04T11:18:12.779Z,982.42
2022-09-04T11:19:12.706Z,982.41
2022-09-04T11:20:17.588Z,982.43
2022-09-04T11:21:12.563Z,982.44
2022-09-04T11:22:12.486Z,982.37
2022-09-04T11:23:12.413Z,982.36
2022-09-04T11:24:12.350Z,982.35
2022-09-04T11:25:12.264Z,982.37
2022-09-04T11:26:12.196Z,982.39
2022-09-04T11:27:12.121Z,982.37
2022-09-04T11:28:12.040Z,982.38
2022-09-04T11:29:11.978Z,982.39
2022-09-04T11:30:12.004Z,982.36
2022-09-04T11:31:11.886Z,982.36
2022-09-04T11:32:11.757Z,982.39
2022-09-04T11:33:11.688Z,982.41
2022-09-04T11:34:11.612Z,982.40
2022-09-04T11:35:11.535Z,982.37
2022-09-04T11:36:11.463Z,982.39
2022-09-04T11:37:11.390Z,982.41
2022-09-04T11:38:11.320Z,982.37
2022-09-04T11:39:11.245Z,982.36
2022-09-04T11:40:11.169Z,982.38
2022-09-04T11:41:11.102Z,982.35
2022-09-04T11:42:11.033Z,982.40
2022-09-04T11:43:10.953Z,982.41
2022-09-04T11:44:10.888Z,982.40
2022-09-04T11:45:10.810Z,982.39
2022-09-04T11:46:10.805Z,982.43
2022-09-04T11:47:10.663Z,982.44
2022-09-04T11:48:10.592Z,982.40
2022-09-04T11:49:10.519Z,982.42
2022-09-04T11:50:10.463Z,982.41
2022-09-04T11:51:10.390Z,982.44
2022-09-04T11:52:10.309Z,982.44
2022-09-04T11:53:10.232Z,982.42
2022-09-04T11:54:10.162Z,982.41
2022-09-04T11:55:10.086Z,982.37
2022-09-04T11:56:10.026Z,982.35
2022-09-04T11:57:09.941Z,982.32
2022-09-04T11:58:09.869Z,982.30
2022-09-04T11:59:09.799Z,982.27
2022-09-04T12:00:09.732Z,982.25
2022-09-04T12:01:10.235Z,982.23
2022-09-04T12:02:09.612Z,982.25
2022-09-04T12:03:09.512Z,982.23
2022-09-04T12:04:09.496Z,982.26
2022-09-04T12:05:09.376Z,982.25
2022-09-04T12:06:09.306Z,982.22
2022-09-04T12:07:09.227Z,982.28
2022-09-04T12:08:09.158Z,982.28
2022-09-04T12:09:09.087Z,982.23
2022-09-04T12:10:09.021Z,982.26
2022-09-04T12:11:08.949Z,982.24
2022-09-04T12:12:08.879Z,982.26
2022-09-04T12:13:15.186Z,982.26
2022-09-04T12:14:08.740Z,982.33
2022-09-04T12:15:09.486Z,982.28
2022-09-04T12:16:08.644Z,982.24
2022-09-04T12:17:08.529Z,982.30
2022-09-04T12:18:08.457Z,982.38
2022-09-04T12:19:08.387Z,982.37
2022-09-04T12:20:08.320Z,982.33
2022-09-04T12:21:08.253Z,982.33
2022-09-04T12:22:08.183Z,982.32
2022-09-04T12:23:08.109Z,982.27
2022-09-04T12:24:08.042Z,982.27
2022-09-04T12:25:07.980Z,982.27
2022-09-04T12:26:07.906Z,982.32
2022-09-04T12:27:07.846Z,982.19